8B0

Steven A Bean Municipal Airport

Rangeley, Maine, USA
METAR K8B0 171455Z AUTO 30012G21KT 270V330 2 1/2SM -SN OVC021 00/M03 A2986 RMK AO2
Observed Flight Rules
Nov-17 @ 14:55 UTC (7 hours ago) Instrument Flight Rules
Wind Visibility Clouds Conditions
300° at 12 knots
 Gusting to 21 knots
2 1/2 miles
  • Overcast at 2,100' AGL
  • Light Snow
Temperatures Readings
Current 0°C / 32°F
Dewpoint -3°C / 27°F
Humidity 80%
Altimeter 29.86" Hg
Pressure 1011 hPa
METAR K8B0 171455Z AUTO 30012G21KT 270V330 2 1/2SM -SN OVC021 00/M03 A2986 RMK AO2
Observed Flight Rules
Nov-17 @ 14:55 UTC
(7 hours ago)
IFR
Wind Visibility
300° at 12 knots
 Gusting to 21 knots
2 1/2 miles
Clouds
  • Overcast at 2,100' AGL
Conditions
  • Light Snow
Temperature Dewpoint
0°C / 32°F -3°C / 27°F
Humidity Altimeter Pressure
80% 29.86" Hg 1011 hPa